Time;durP1;ratioP1;P1;durP2;ratioP2;P2;SDS_P1;SDS_P2;PMS_P1;PMS_P2;Temp;Humidity;BMP_temperature;BMP_pressure;BME280_temperature;BME280_humidity;BME280_pressure;Samples;Min_cycle;Max_cycle;Signal;HPM_P1;HPM_P2
2022/12/24 00:00:29;;;;;;;;;;;18.00;50.10;;;;;;4953947;28;19915;-51
2022/12/24 00:02:54;;;;;;;;;;;18.00;50.10;;;;;;4953916;28;19921;-51
2022/12/24 00:05:20;;;;;;;;;;;17.90;50.10;;;;;;4953367;28;19923;-51
2022/12/24 00:07:45;;;;;;;;;;;17.90;50.10;;;;;;4953767;29;19918;-51
2022/12/24 00:10:11;;;;;;;;;;;17.90;50.00;;;;;;4953269;28;19976;-51
2022/12/24 00:12:36;;;;;;;;;;;17.90;50.10;;;;;;4953297;29;20001;-51
2022/12/24 00:15:02;;;;;;;;;;;17.90;50.20;;;;;;4953265;28;19980;-51
2022/12/24 00:17:28;;;;;;;;;;;17.90;50.80;;;;;;4954278;28;19925;-51
2022/12/24 00:19:53;;;;;;;;;;;17.90;50.20;;;;;;4953338;28;19910;-51
2022/12/24 00:22:18;;;;;;;;;;;17.90;50.20;;;;;;4953889;28;19917;-51
2022/12/24 00:24:44;;;;;;;;;;;17.80;50.30;;;;;;4953357;28;19960;-51
2022/12/24 00:27:09;;;;;;;;;;;17.80;50.20;;;;;;4952863;28;20044;-51
2022/12/24 00:29:35;;;;;;;;;;;17.80;50.30;;;;;;4953188;28;19921;-51
2022/12/24 00:32:00;;;;;;;;;;;17.70;50.90;;;;;;4953893;28;19916;-51
2022/12/24 00:34:26;;;;;;;;;;;17.70;50.30;;;;;;4951583;28;20446;-51
2022/12/24 00:36:51;;;;;;;;;;;17.70;50.50;;;;;;4953385;29;20371;-52
2022/12/24 00:39:16;;;;;;;;;;;17.70;50.40;;;;;;4952853;29;20003;-51
2022/12/24 00:41:42;;;;;;;;;;;17.70;50.50;;;;;;4953277;29;19914;-51
2022/12/24 00:44:09;;;;;;;;;;;17.70;50.50;;;;;;4951585;28;19918;-51
2022/12/24 00:46:34;;;;;;;;;;;17.70;50.60;;;;;;4953652;29;19911;-51
2022/12/24 00:49:00;;;;;;;;;;;17.60;50.50;;;;;;4958827;28;19940;-51
2022/12/24 00:51:25;;;;;;;;;;;17.60;50.60;;;;;;4972104;28;19923;-52
2022/12/24 00:53:51;;;;;;;;;;;17.60;50.50;;;;;;5020045;28;19972;-51
2022/12/24 00:56:16;;;;;;;;;;;17.60;50.50;;;;;;4952729;28;20390;-51
2022/12/24 00:58:42;;;;;;;;;;;17.50;50.60;;;;;;4950869;28;20314;-51
2022/12/24 01:01:07;;;;;;;;;;;17.60;50.70;;;;;;4953521;29;19919;-51
2022/12/24 01:03:35;;;;;;;;;;;17.50;50.60;;;;;;4952197;29;20014;-52
2022/12/24 01:06:02;;;;;;;;;;;17.50;50.60;;;;;;4958795;28;20059;-52
2022/12/24 01:08:27;;;;;;;;;;;17.50;50.70;;;;;;4968555;28;19922;-51
2022/12/24 01:10:52;;;;;;;;;;;17.40;50.60;;;;;;4952349;29;19922;-51
2022/12/24 01:13:18;;;;;;;;;;;17.50;50.80;;;;;;4952244;29;19968;-51
2022/12/24 01:15:43;;;;;;;;;;;17.40;50.70;;;;;;4953062;29;19952;-52
2022/12/24 01:18:09;;;;;;;;;;;17.40;50.70;;;;;;4952179;29;19915;-50
2022/12/24 01:20:34;;;;;;;;;;;17.40;50.80;;;;;;4952240;29;20439;-51
2022/12/24 01:23:00;;;;;;;;;;;17.40;50.80;;;;;;4958475;28;20476;-51
2022/12/24 01:25:25;;;;;;;;;;;17.40;50.80;;;;;;4969228;28;19914;-51
2022/12/24 01:27:51;;;;;;;;;;;17.30;50.70;;;;;;4935144;29;19910;-52
2022/12/24 01:30:16;;;;;;;;;;;17.30;50.70;;;;;;4952303;29;19915;-51
2022/12/24 01:32:42;;;;;;;;;;;17.30;50.70;;;;;;4952633;29;19911;-51
2022/12/24 01:35:08;;;;;;;;;;;17.30;50.70;;;;;;4951996;29;19918;-52
2022/12/24 01:37:34;;;;;;;;;;;17.30;50.80;;;;;;4952480;28;20283;-51
2022/12/24 01:45:42;;;;;;;;;;;17.20;50.70;;;;;;4952567;29;19960;-52
2022/12/24 01:48:12;;;;;;;;;;;17.20;50.70;;;;;;4951908;28;20359;-52
2022/12/24 01:50:37;;;;;;;;;;;17.20;50.90;;;;;;4949692;28;19921;-51
2022/12/24 01:53:02;;;;;;;;;;;17.20;50.70;;;;;;5021195;28;19909;-51
2022/12/24 01:55:28;;;;;;;;;;;17.20;50.70;;;;;;5022994;28;19919;-51
2022/12/24 01:57:54;;;;;;;;;;;17.20;50.70;;;;;;4952110;29;19910;-52
2022/12/24 02:00:20;;;;;;;;;;;17.10;50.60;;;;;;4951055;28;19922;-51
2022/12/24 02:02:46;;;;;;;;;;;17.10;50.70;;;;;;4951687;28;19929;-51
2022/12/24 02:05:21;;;;;;;;;;;17.10;50.70;;;;;;4951314;28;20472;-51
2022/12/24 02:07:46;;;;;;;;;;;17.10;50.70;;;;;;4950884;28;19914;-51
2022/12/24 02:10:13;;;;;;;;;;;17.10;50.60;;;;;;4948732;28;19956;-51
2022/12/24 02:12:39;;;;;;;;;;;17.10;50.60;;;;;;4950774;28;19940;-51
2022/12/24 02:15:05;;;;;;;;;;;17.10;50.40;;;;;;4941201;28;20444;-51
2022/12/24 02:17:36;;;;;;;;;;;17.20;50.30;;;;;;4949246;28;19988;-51
2022/12/24 02:20:04;;;;;;;;;;;17.40;50.00;;;;;;4934638;29;20286;-51
2022/12/24 02:22:32;;;;;;;;;;;17.60;50.10;;;;;;4951508;29;19919;-51
2022/12/24 02:25:04;;;;;;;;;;;17.90;49.30;;;;;;4951309;29;20433;-51
2022/12/24 02:27:41;;;;;;;;;;;18.30;48.60;;;;;;4951690;29;20017;-51
2022/12/24 02:30:09;;;;;;;;;;;18.60;47.80;;;;;;4952469;29;19960;-51
2022/12/24 02:32:34;;;;;;;;;;;19.00;47.10;;;;;;4943238;28;20002;-52
2022/12/24 02:35:02;;;;;;;;;;;19.30;46.40;;;;;;4950857;29;20108;-52
2022/12/24 02:37:32;;;;;;;;;;;19.70;45.60;;;;;;4951560;29;20055;-52
2022/12/24 02:39:59;;;;;;;;;;;20.00;45.00;;;;;;4933725;29;19953;-51
2022/12/24 02:42:26;;;;;;;;;;;20.20;44.60;;;;;;4934772;28;19918;-51
2022/12/24 02:45:00;;;;;;;;;;;20.30;44.40;;;;;;4949374;28;19911;-52
2022/12/24 02:47:25;;;;;;;;;;;20.30;44.40;;;;;;4949542;28;19918;-51
2022/12/24 02:49:51;;;;;;;;;;;20.30;44.50;;;;;;4967941;28;19914;-52
2022/12/24 02:52:34;;;;;;;;;;;20.20;44.60;;;;;;5005750;28;19955;-52
2022/12/24 02:55:01;;;;;;;;;;;20.00;44.70;;;;;;4970767;28;19922;-51
2022/12/24 02:57:39;;;;;;;;;;;19.90;45.10;;;;;;4950591;28;19933;-51
2022/12/24 03:00:09;;;;;;;;;;;19.70;45.40;;;;;;4942777;28;19919;-52
2022/12/24 03:02:54;;;;;;;;;;;19.60;45.70;;;;;;4942534;28;19918;-51
2022/12/24 03:05:32;;;;;;;;;;;19.50;45.90;;;;;;4949846;28;19929;-52
2022/12/24 03:08:15;;;;;;;;;;;19.40;46.20;;;;;;4953512;28;19924;-51
2022/12/24 03:10:46;;;;;;;;;;;19.30;46.40;;;;;;4937029;29;19922;-51
2022/12/24 03:13:12;;;;;;;;;;;19.20;46.50;;;;;;4952929;28;20357;-52
2022/12/24 03:15:38;;;;;;;;;;;19.10;46.60;;;;;;4933831;29;19966;-52
2022/12/24 03:18:04;;;;;;;;;;;19.10;46.60;;;;;;4948723;29;19962;-51
2022/12/24 03:20:31;;;;;;;;;;;18.90;46.70;;;;;;4936914;29;19993;-51
2022/12/24 03:22:56;;;;;;;;;;;18.90;46.90;;;;;;4944214;28;19919;-51
2022/12/24 03:25:22;;;;;;;;;;;18.90;47.00;;;;;;4954188;29;20436;-52
2022/12/24 03:27:47;;;;;;;;;;;18.80;47.00;;;;;;4936720;29;19915;-52
2022/12/24 03:30:13;;;;;;;;;;;18.80;47.10;;;;;;4954247;29;19941;-51
2022/12/24 03:32:38;;;;;;;;;;;18.80;47.10;;;;;;4953913;28;19924;-51
2022/12/24 03:35:04;;;;;;;;;;;18.80;47.20;;;;;;4953882;29;19926;-51
2022/12/24 03:37:30;;;;;;;;;;;18.70;47.20;;;;;;4937374;28;19963;-52
2022/12/24 03:39:55;;;;;;;;;;;18.70;47.30;;;;;;4956873;28;19914;-52
2022/12/24 03:42:21;;;;;;;;;;;18.60;48.10;;;;;;4954302;29;19917;-52
2022/12/24 03:44:46;;;;;;;;;;;18.60;47.50;;;;;;4952141;28;19915;-52
2022/12/24 03:47:11;;;;;;;;;;;18.50;47.70;;;;;;4954789;28;19911;-52
2022/12/24 03:49:37;;;;;;;;;;;18.50;47.80;;;;;;4953936;28;19915;-52
2022/12/24 03:52:02;;;;;;;;;;;18.40;48.10;;;;;;4999237;28;19913;-52
2022/12/24 03:54:28;;;;;;;;;;;18.40;48.00;;;;;;4984575;28;19922;-52
2022/12/24 03:56:53;;;;;;;;;;;18.30;47.90;;;;;;4953637;28;19918;-52
2022/12/24 03:59:19;;;;;;;;;;;18.30;47.90;;;;;;4952758;28;19919;-51
2022/12/24 04:01:44;;;;;;;;;;;18.30;47.90;;;;;;4953083;28;19915;-51
2022/12/24 04:04:10;;;;;;;;;;;18.30;48.00;;;;;;4951413;28;19915;-51
2022/12/24 04:06:35;;;;;;;;;;;18.30;48.00;;;;;;4952014;28;19919;-51
2022/12/24 04:09:03;;;;;;;;;;;18.30;48.00;;;;;;4952865;28;19957;-51
2022/12/24 04:11:29;;;;;;;;;;;18.30;48.00;;;;;;4952801;28;19966;-51
2022/12/24 04:13:55;;;;;;;;;;;18.30;48.00;;;;;;4952698;28;20362;-51
2022/12/24 04:16:20;;;;;;;;;;;18.40;47.90;;;;;;4942702;28;19972;-51
2022/12/24 04:18:45;;;;;;;;;;;18.40;47.80;;;;;;4952123;28;19938;-51
2022/12/24 04:21:11;;;;;;;;;;;18.40;47.70;;;;;;4953362;29;19964;-51
2022/12/24 04:23:36;;;;;;;;;;;18.40;47.80;;;;;;4953793;29;19918;-51
2022/12/24 04:26:02;;;;;;;;;;;18.40;47.60;;;;;;4952617;29;19921;-51
2022/12/24 04:28:28;;;;;;;;;;;18.50;47.70;;;;;;4953224;29;20381;-51
2022/12/24 04:30:57;;;;;;;;;;;18.50;47.60;;;;;;4959540;28;20383;-51
2022/12/24 04:33:23;;;;;;;;;;;18.60;47.50;;;;;;4953044;28;20325;-51
2022/12/24 04:35:48;;;;;;;;;;;18.60;47.50;;;;;;4952276;29;19922;-51
2022/12/24 04:38:14;;;;;;;;;;;18.60;47.50;;;;;;4953704;28;19915;-51
2022/12/24 04:40:39;;;;;;;;;;;18.60;47.40;;;;;;4952373;28;20425;-51
2022/12/24 04:43:05;;;;;;;;;;;18.60;47.40;;;;;;4944114;29;19915;-51
2022/12/24 04:45:31;;;;;;;;;;;18.60;47.40;;;;;;4951226;28;20014;-51
2022/12/24 04:47:56;;;;;;;;;;;18.60;47.30;;;;;;4966772;28;20026;-51
2022/12/24 04:50:21;;;;;;;;;;;18.60;47.50;;;;;;4948011;28;20036;-52
2022/12/24 04:52:47;;;;;;;;;;;18.60;47.50;;;;;;4946582;28;19915;-51
2022/12/24 04:55:12;;;;;;;;;;;18.50;47.40;;;;;;4950969;28;19918;-51
2022/12/24 04:57:38;;;;;;;;;;;18.50;47.40;;;;;;4952780;29;20009;-52
2022/12/24 05:00:03;;;;;;;;;;;18.50;47.40;;;;;;4950318;28;19953;-51
2022/12/24 05:02:29;;;;;;;;;;;18.60;47.50;;;;;;4951296;28;19922;-51
2022/12/24 05:04:54;;;;;;;;;;;18.50;47.50;;;;;;4951345;28;20337;-51
2022/12/24 05:07:20;;;;;;;;;;;18.50;47.60;;;;;;4952996;29;20345;-51
2022/12/24 05:09:45;;;;;;;;;;;18.50;47.60;;;;;;4952167;28;19915;-51
2022/12/24 05:12:11;;;;;;;;;;;18.50;47.60;;;;;;4949913;28;19926;-51
2022/12/24 05:14:36;;;;;;;;;;;18.50;47.60;;;;;;4951195;28;19930;-51
2022/12/24 05:17:01;;;;;;;;;;;18.40;47.60;;;;;;4950089;28;21606;-51
2022/12/24 05:19:27;;;;;;;;;;;18.40;48.30;;;;;;4951800;28;19914;-51
2022/12/24 05:27:21;;;;;;;;;;;18.40;47.70;;;;;;4951152;28;19922;-51
2022/12/24 05:29:46;;;;;;;;;;;18.40;47.60;;;;;;4951237;28;19915;-51
2022/12/24 05:32:12;;;;;;;;;;;18.40;47.60;;;;;;4951214;28;20009;-51
2022/12/24 05:34:37;;;;;;;;;;;18.50;47.70;;;;;;4950962;28;19919;-51
2022/12/24 05:37:02;;;;;;;;;;;18.50;47.60;;;;;;4951245;28;19915;-52
2022/12/24 05:39:28;;;;;;;;;;;18.50;47.60;;;;;;4951840;28;19919;-52
2022/12/24 05:41:53;;;;;;;;;;;18.50;47.50;;;;;;4952145;28;20394;-52
2022/12/24 05:44:19;;;;;;;;;;;18.50;47.50;;;;;;4951651;28;19989;-51
2022/12/24 05:46:44;;;;;;;;;;;18.50;47.50;;;;;;4950865;28;19984;-51
2022/12/24 05:49:10;;;;;;;;;;;18.40;47.40;;;;;;4951818;28;19946;-51
2022/12/24 05:51:35;;;;;;;;;;;18.40;47.50;;;;;;4951079;28;20388;-52
2022/12/24 05:54:01;;;;;;;;;;;18.40;47.50;;;;;;4951429;28;20009;-51
2022/12/24 05:56:26;;;;;;;;;;;18.40;47.40;;;;;;4951018;28;19997;-52
2022/12/24 05:58:52;;;;;;;;;;;18.40;47.40;;;;;;4951847;29;19968;-52
2022/12/24 06:01:18;;;;;;;;;;;18.40;47.50;;;;;;4952401;28;19915;-52
2022/12/24 06:03:43;;;;;;;;;;;18.40;47.40;;;;;;4948872;28;19914;-52
2022/12/24 06:06:10;;;;;;;;;;;18.40;47.40;;;;;;4950892;28;19922;-51
2022/12/24 06:08:35;;;;;;;;;;;18.40;47.40;;;;;;4943030;29;19933;-51
2022/12/24 06:11:01;;;;;;;;;;;18.40;47.40;;;;;;4951058;29;20466;-52
2022/12/24 06:13:27;;;;;;;;;;;18.40;47.40;;;;;;4956260;28;19930;-52
2022/12/24 06:15:53;;;;;;;;;;;18.40;47.50;;;;;;4952263;28;19997;-52
2022/12/24 06:18:19;;;;;;;;;;;18.40;47.50;;;;;;4951531;28;19929;-52
2022/12/24 06:20:44;;;;;;;;;;;18.40;47.60;;;;;;4934500;29;19919;-51
2022/12/24 06:23:09;;;;;;;;;;;18.40;47.60;;;;;;4950903;28;20267;-52
2022/12/24 06:25:35;;;;;;;;;;;18.40;47.60;;;;;;4970458;28;20271;-52
2022/12/24 06:28:00;;;;;;;;;;;18.40;47.60;;;;;;4966179;28;19961;-52
2022/12/24 06:30:26;;;;;;;;;;;18.40;47.50;;;;;;4965597;28;19992;-51
2022/12/24 06:32:51;;;;;;;;;;;18.40;47.50;;;;;;4952205;29;19911;-51
2022/12/24 06:35:17;;;;;;;;;;;18.30;47.50;;;;;;4948710;28;20272;-52
2022/12/24 06:37:42;;;;;;;;;;;18.30;47.50;;;;;;4950334;28;19921;-52
2022/12/24 06:40:08;;;;;;;;;;;18.30;47.50;;;;;;4950151;28;19929;-52
2022/12/24 06:42:33;;;;;;;;;;;18.30;47.60;;;;;;4956522;28;19930;-52
2022/12/24 06:44:59;;;;;;;;;;;18.30;47.60;;;;;;4957376;28;19947;-52
2022/12/24 06:47:24;;;;;;;;;;;18.30;48.20;;;;;;4956965;28;19915;-52
2022/12/24 06:49:50;;;;;;;;;;;18.30;47.60;;;;;;4955872;28;19981;-52
2022/12/24 06:52:15;;;;;;;;;;;18.30;47.60;;;;;;4957904;28;20001;-52
2022/12/24 06:54:40;;;;;;;;;;;18.30;47.50;;;;;;4956618;28;19922;-52
2022/12/24 06:57:06;;;;;;;;;;;18.30;47.50;;;;;;4955043;28;19915;-52
2022/12/24 06:59:31;;;;;;;;;;;18.30;47.50;;;;;;4957211;28;19915;-52
2022/12/24 07:01:57;;;;;;;;;;;18.30;47.50;;;;;;4955925;28;19922;-52
2022/12/24 07:04:22;;;;;;;;;;;18.30;47.40;;;;;;4970095;28;20001;-52
2022/12/24 07:06:48;;;;;;;;;;;18.40;48.20;;;;;;4955830;28;19941;-52
2022/12/24 07:09:13;;;;;;;;;;;18.40;47.40;;;;;;4956989;28;19918;-53
2022/12/24 07:11:39;;;;;;;;;;;18.40;47.50;;;;;;4957707;28;19923;-52
2022/12/24 07:14:04;;;;;;;;;;;18.40;47.40;;;;;;4956139;28;20025;-52
2022/12/24 07:16:30;;;;;;;;;;;18.40;47.40;;;;;;4955791;28;19965;-52
2022/12/24 07:18:55;;;;;;;;;;;18.40;47.50;;;;;;4956250;28;19921;-53
2022/12/24 07:21:20;;;;;;;;;;;18.40;47.50;;;;;;4956158;28;19969;-52
2022/12/24 07:23:46;;;;;;;;;;;18.40;47.40;;;;;;4957421;29;19968;-52
2022/12/24 07:26:11;;;;;;;;;;;18.30;47.40;;;;;;4956265;28;19921;-52
2022/12/24 07:28:37;;;;;;;;;;;18.40;47.40;;;;;;4954719;28;19922;-52
2022/12/24 07:31:02;;;;;;;;;;;18.30;47.40;;;;;;4956195;29;20448;-52
2022/12/24 07:33:28;;;;;;;;;;;18.30;47.50;;;;;;4954160;28;20419;-52
2022/12/24 07:35:57;;;;;;;;;;;18.30;47.60;;;;;;4972356;28;19941;-51
2022/12/24 07:38:22;;;;;;;;;;;18.30;47.60;;;;;;4956142;28;19977;-51
2022/12/24 07:40:48;;;;;;;;;;;18.20;47.60;;;;;;4956002;28;19949;-51
2022/12/24 07:43:13;;;;;;;;;;;18.20;47.50;;;;;;4954761;28;20382;-51
2022/12/24 07:45:38;;;;;;;;;;;18.20;47.60;;;;;;4956355;28;19921;-51
2022/12/24 07:48:04;;;;;;;;;;;18.20;47.50;;;;;;4956110;28;19922;-51
2022/12/24 07:50:29;;;;;;;;;;;18.20;47.50;;;;;;4956517;28;19954;-52
2022/12/24 07:52:55;;;;;;;;;;;18.20;47.60;;;;;;4960200;28;19915;-52
2022/12/24 07:55:20;;;;;;;;;;;18.20;47.60;;;;;;4952934;28;20397;-51
2022/12/24 07:57:46;;;;;;;;;;;18.20;47.70;;;;;;4952630;28;20381;-52
2022/12/24 08:00:12;;;;;;;;;;;18.20;47.70;;;;;;4949849;28;19915;-52
2022/12/24 08:02:37;;;;;;;;;;;18.20;47.70;;;;;;4952819;28;19994;-52
2022/12/24 08:05:03;;;;;;;;;;;18.20;47.70;;;;;;4951663;28;20029;-52
2022/12/24 08:07:28;;;;;;;;;;;18.20;47.60;;;;;;4963108;28;19941;-52
2022/12/24 08:09:54;;;;;;;;;;;18.20;47.70;;;;;;4943700;28;20147;-52
2022/12/24 08:12:19;;;;;;;;;;;18.20;47.50;;;;;;4954133;28;20386;-52
2022/12/24 08:14:45;;;;;;;;;;;18.30;48.20;;;;;;4952995;29;20442;-52
2022/12/24 08:17:10;;;;;;;;;;;18.30;47.50;;;;;;4953945;28;19957;-51
2022/12/24 08:19:36;;;;;;;;;;;18.30;47.50;;;;;;4953871;29;19917;-51
2022/12/24 08:22:01;;;;;;;;;;;18.30;47.50;;;;;;4953438;29;19938;-52
2022/12/24 08:24:26;;;;;;;;;;;18.30;47.50;;;;;;4953363;28;19911;-52
2022/12/24 08:26:52;;;;;;;;;;;18.30;47.50;;;;;;4936317;28;19915;-52
2022/12/24 08:29:17;;;;;;;;;;;18.20;47.40;;;;;;4953530;28;19919;-52
2022/12/24 08:31:43;;;;;;;;;;;18.20;47.50;;;;;;4953523;29;19958;-52
2022/12/24 08:34:09;;;;;;;;;;;18.20;47.50;;;;;;4953304;29;19941;-51
2022/12/24 08:36:34;;;;;;;;;;;18.20;47.50;;;;;;4953845;28;19918;-51
2022/12/24 08:39:02;;;;;;;;;;;18.20;47.60;;;;;;4953363;28;19916;-51
2022/12/24 08:41:28;;;;;;;;;;;18.20;47.60;;;;;;4936283;28;19910;-51
2022/12/24 08:43:54;;;;;;;;;;;18.20;47.50;;;;;;4952316;29;20379;-52
2022/12/24 08:46:19;;;;;;;;;;;18.20;47.60;;;;;;4959416;28;19954;-51
2022/12/24 08:48:45;;;;;;;;;;;18.20;47.60;;;;;;4953138;28;19910;-52
2022/12/24 08:51:10;;;;;;;;;;;18.20;47.60;;;;;;4965537;28;19914;-51
2022/12/24 08:53:36;;;;;;;;;;;18.20;47.70;;;;;;5007471;28;19922;-52
2022/12/24 08:56:02;;;;;;;;;;;18.10;47.70;;;;;;4965976;28;19918;-52
2022/12/24 08:58:28;;;;;;;;;;;18.20;47.70;;;;;;4952936;28;19918;-52
2022/12/24 09:00:53;;;;;;;;;;;18.20;47.70;;;;;;4953250;28;19922;-52
2022/12/24 09:03:19;;;;;;;;;;;18.10;47.70;;;;;;4953522;28;19982;-52
2022/12/24 09:05:44;;;;;;;;;;;18.10;47.70;;;;;;4952653;29;20302;-52
2022/12/24 09:08:10;;;;;;;;;;;18.20;47.70;;;;;;4952152;29;19915;-53
2022/12/24 09:10:35;;;;;;;;;;;18.20;47.70;;;;;;4953010;29;19918;-52
2022/12/24 09:13:00;;;;;;;;;;;18.20;47.60;;;;;;4952566;29;19915;-53
2022/12/24 09:15:26;;;;;;;;;;;18.10;47.70;;;;;;4952924;29;20451;-52
2022/12/24 09:17:51;;;;;;;;;;;18.20;47.70;;;;;;4952962;29;19949;-52
2022/12/24 09:20:17;;;;;;;;;;;18.20;47.80;;;;;;4956784;28;19914;-52
2022/12/24 09:22:42;;;;;;;;;;;18.20;48.30;;;;;;4950584;28;19914;-53
2022/12/24 09:25:09;;;;;;;;;;;18.20;47.70;;;;;;4954582;28;19975;-51
2022/12/24 09:27:35;;;;;;;;;;;18.20;47.70;;;;;;4950270;28;20347;-51
2022/12/24 09:30:00;;;;;;;;;;;18.40;47.90;;;;;;4951142;28;20036;-52
2022/12/24 09:32:25;;;;;;;;;;;18.80;47.10;;;;;;4951194;28;19915;-52
2022/12/24 09:34:51;;;;;;;;;;;19.30;46.10;;;;;;4948535;28;20035;-51
2022/12/24 09:37:17;;;;;;;;;;;19.60;45.40;;;;;;4948235;28;19922;-51
2022/12/24 09:39:42;;;;;;;;;;;19.90;45.00;;;;;;4947215;28;19921;-52
2022/12/24 09:42:16;;;;;;;;;;;20.00;44.90;;;;;;4957073;28;19967;-51
2022/12/24 09:44:42;;;;;;;;;;;20.20;44.60;;;;;;4951228;28;19910;-51
2022/12/24 09:47:10;;;;;;;;;;;20.30;44.20;;;;;;4951679;29;19922;-51
2022/12/24 09:49:45;;;;;;;;;;;20.40;44.20;;;;;;4933878;28;19937;-51
2022/12/24 09:52:12;;;;;;;;;;;20.30;44.20;;;;;;4968167;28;19911;-50
2022/12/24 09:54:39;;;;;;;;;;;20.30;44.10;;;;;;4949338;28;20009;-50
2022/12/24 09:57:05;;;;;;;;;;;20.40;44.20;;;;;;4936155;28;20299;-51
2022/12/24 09:59:42;;;;;;;;;;;20.30;44.00;;;;;;4949108;28;19914;-51
2022/12/24 10:02:12;;;;;;;;;;;20.50;44.00;;;;;;4950010;28;20322;-51
2022/12/24 10:04:37;;;;;;;;;;;20.60;43.60;;;;;;5008242;28;19909;-51
2022/12/24 10:07:03;;;;;;;;;;;20.60;43.50;;;;;;5052578;28;19917;-52
2022/12/24 10:09:28;;;;;;;;;;;20.50;43.80;;;;;;5052104;28;19956;-50
2022/12/24 10:12:00;;;;;;;;;;;20.50;43.80;;;;;;5052702;28;19924;-51
2022/12/24 10:14:38;;;;;;;;;;;20.60;43.80;;;;;;4951496;28;20298;-51
2022/12/24 10:17:13;;;;;;;;;;;20.70;43.30;;;;;;4949597;28;19919;-51
2022/12/24 10:19:48;;;;;;;;;;;20.90;43.10;;;;;;4951535;29;19914;-52
2022/12/24 10:22:25;;;;;;;;;;;21.00;42.80;;;;;;4950654;28;19918;-51
2022/12/24 10:24:56;;;;;;;;;;;21.10;42.60;;;;;;4950063;28;19910;-51
2022/12/24 10:27:23;;;;;;;;;;;21.10;42.40;;;;;;4951537;29;19914;-52
2022/12/24 10:29:51;;;;;;;;;;;21.20;42.40;;;;;;4949974;29;19919;-51
2022/12/24 10:32:20;;;;;;;;;;;21.10;42.40;;;;;;4931952;28;20040;-51
2022/12/24 10:34:51;;;;;;;;;;;21.00;42.60;;;;;;4932254;28;19942;-51
2022/12/24 10:37:19;;;;;;;;;;;20.90;43.00;;;;;;4941392;28;19911;-52
2022/12/24 10:39:45;;;;;;;;;;;20.90;43.00;;;;;;5016778;28;19926;-52
2022/12/24 10:42:10;;;;;;;;;;;20.90;42.70;;;;;;4950935;29;19910;-51
2022/12/24 10:44:35;;;;;;;;;;;21.20;42.40;;;;;;4951022;29;19914;-50
2022/12/24 10:47:01;;;;;;;;;;;21.30;42.20;;;;;;4951506;29;19925;-51
2022/12/24 10:49:38;;;;;;;;;;;21.40;42.10;;;;;;4951459;29;19914;-52
2022/12/24 10:52:11;;;;;;;;;;;21.40;41.90;;;;;;4934280;28;20024;-51
2022/12/24 10:54:40;;;;;;;;;;;21.50;41.90;;;;;;4949355;29;19968;-50
2022/12/24 10:57:05;;;;;;;;;;;21.40;41.90;;;;;;4934691;28;19918;-51
2022/12/24 10:59:50;;;;;;;;;;;21.50;41.80;;;;;;4933863;29;19911;-51
2022/12/24 11:02:28;;;;;;;;;;;21.60;41.70;;;;;;4951403;29;19953;-50
2022/12/24 11:04:54;;;;;;;;;;;21.50;41.70;;;;;;4933607;29;20286;-51
2022/12/24 11:07:20;;;;;;;;;;;21.50;41.80;;;;;;4940570;28;19922;-51
2022/12/24 11:09:56;;;;;;;;;;;21.50;41.60;;;;;;4950622;29;19921;-51
2022/12/24 11:12:22;;;;;;;;;;;21.50;41.70;;;;;;4951171;29;19937;-52
2022/12/24 11:14:47;;;;;;;;;;;21.40;41.90;;;;;;4933992;28;19925;-50
2022/12/24 11:17:18;;;;;;;;;;;21.30;42.00;;;;;;4934002;29;20345;-51
2022/12/24 11:19:43;;;;;;;;;;;21.20;42.30;;;;;;4934003;28;19910;-51
2022/12/24 11:22:20;;;;;;;;;;;21.10;42.40;;;;;;4949753;29;20009;-50
2022/12/24 11:24:45;;;;;;;;;;;21.00;42.60;;;;;;4949110;29;20387;-51
2022/12/24 11:27:21;;;;;;;;;;;21.10;42.60;;;;;;4950532;29;20010;-51
2022/12/24 11:29:46;;;;;;;;;;;21.20;42.50;;;;;;4952710;28;20377;-51
2022/12/24 11:32:19;;;;;;;;;;;21.20;42.40;;;;;;4952982;28;19918;-52
2022/12/24 11:34:44;;;;;;;;;;;21.40;42.00;;;;;;4957524;28;19922;-52
2022/12/24 11:37:17;;;;;;;;;;;21.50;41.80;;;;;;4968098;28;19915;-51
2022/12/24 11:39:52;;;;;;;;;;;21.60;41.70;;;;;;4952349;29;19911;-50
2022/12/24 11:42:25;;;;;;;;;;;21.60;41.70;;;;;;4952809;28;19998;-51
2022/12/24 11:44:50;;;;;;;;;;;21.50;41.90;;;;;;4953503;28;19918;-52
2022/12/24 11:47:16;;;;;;;;;;;21.40;41.80;;;;;;4954172;29;19911;-51
2022/12/24 11:49:41;;;;;;;;;;;21.40;41.90;;;;;;4940376;29;19915;-52
2022/12/24 11:52:09;;;;;;;;;;;21.30;42.20;;;;;;5001932;28;20384;-52
2022/12/24 11:54:58;;;;;;;;;;;21.30;42.10;;;;;;5054448;28;19917;-51
2022/12/24 11:57:24;;;;;;;;;;;21.30;42.30;;;;;;5049354;28;19908;-51
2022/12/24 11:59:51;;;;;;;;;;;21.50;41.80;;;;;;5053368;28;19932;-53
2022/12/24 12:02:27;;;;;;;;;;;21.60;41.60;;;;;;5015540;28;19921;-51
2022/12/24 12:04:59;;;;;;;;;;;21.60;42.30;;;;;;4955721;28;20017;-51
2022/12/24 12:07:29;;;;;;;;;;;21.60;41.40;;;;;;4953898;28;20374;-51
2022/12/24 12:10:13;;;;;;;;;;;21.60;41.70;;;;;;4952395;28;19915;-51
2022/12/24 12:12:43;;;;;;;;;;;21.40;41.80;;;;;;4952496;28;19921;-53
2022/12/24 12:15:08;;;;;;;;;;;21.20;42.30;;;;;;4953529;28;20427;-52
2022/12/24 12:17:47;;;;;;;;;;;21.20;42.50;;;;;;4953750;29;20009;-52
2022/12/24 12:20:31;;;;;;;;;;;21.20;42.50;;;;;;4936603;28;19910;-52
2022/12/24 12:22:57;;;;;;;;;;;21.30;42.30;;;;;;4953450;29;20497;-51
2022/12/24 12:25:25;;;;;;;;;;;21.40;42.00;;;;;;4953407;29;19910;-51
2022/12/24 12:27:52;;;;;;;;;;;21.50;41.80;;;;;;4948438;29;19921;-51
2022/12/24 12:30:19;;;;;;;;;;;21.60;41.60;;;;;;4933107;28;19918;-51
2022/12/24 12:32:45;;;;;;;;;;;21.70;41.50;;;;;;4934406;28;20286;-51
2022/12/24 12:35:37;;;;;;;;;;;21.80;41.40;;;;;;4937777;28;20420;-50
2022/12/24 12:38:04;;;;;;;;;;;21.80;41.50;;;;;;4954945;28;20443;-51
2022/12/24 12:40:33;;;;;;;;;;;21.90;41.20;;;;;;4951996;28;19918;-51
2022/12/24 12:43:01;;;;;;;;;;;21.90;41.20;;;;;;4948372;28;19960;-50
2022/12/24 12:45:46;;;;;;;;;;;21.90;41.20;;;;;;4932762;28;19933;-51
2022/12/24 12:48:21;;;;;;;;;;;21.80;41.40;;;;;;4934306;29;19917;-51
2022/12/24 12:50:47;;;;;;;;;;;21.70;41.50;;;;;;4946537;28;19914;-51
2022/12/24 12:53:15;;;;;;;;;;;21.70;41.70;;;;;;5046405;28;20008;-53
2022/12/24 12:55:49;;;;;;;;;;;21.50;41.80;;;;;;5053647;28;19908;-52
2022/12/24 12:58:16;;;;;;;;;;;21.20;42.20;;;;;;5053781;28;20391;-52
2022/12/24 13:00:44;;;;;;;;;;;21.00;42.90;;;;;;5030727;28;20009;-53
2022/12/24 13:03:12;;;;;;;;;;;20.90;43.20;;;;;;4953062;29;19937;-50
2022/12/24 13:05:37;;;;;;;;;;;20.80;43.30;;;;;;5018488;28;20001;-51
2022/12/24 13:08:09;;;;;;;;;;;20.80;43.30;;;;;;4952785;29;20006;-52
2022/12/24 13:10:39;;;;;;;;;;;20.90;43.10;;;;;;4952456;28;20374;-52
2022/12/24 13:13:13;;;;;;;;;;;20.90;43.10;;;;;;4951960;28;19919;-51
2022/12/24 13:16:08;;;;;;;;;;;20.90;42.90;;;;;;4952738;29;19922;-53
2022/12/24 13:18:44;;;;;;;;;;;20.80;43.30;;;;;;5004411;28;19916;-51
2022/12/24 13:21:14;;;;;;;;;;;20.80;43.30;;;;;;4952449;28;20006;-51
2022/12/24 13:23:39;;;;;;;;;;;20.90;43.30;;;;;;4935539;29;19922;-51
2022/12/24 13:26:09;;;;;;;;;;;21.00;42.90;;;;;;4952243;28;19940;-51
2022/12/24 13:28:35;;;;;;;;;;;21.20;42.50;;;;;;4935282;28;19929;-51
2022/12/24 13:31:18;;;;;;;;;;;21.50;42.10;;;;;;4952552;29;19918;-51
2022/12/24 13:33:43;;;;;;;;;;;21.60;41.80;;;;;;4952633;28;19915;-51
2022/12/24 13:36:09;;;;;;;;;;;21.70;41.60;;;;;;4952157;28;19919;-51
2022/12/24 13:38:48;;;;;;;;;;;21.80;41.40;;;;;;4952657;28;20375;-51
2022/12/24 13:41:37;;;;;;;;;;;21.80;41.40;;;;;;4952246;28;19910;-51
2022/12/24 13:44:05;;;;;;;;;;;22.00;41.00;;;;;;4951905;28;19917;-51
2022/12/24 13:46:49;;;;;;;;;;;22.10;41.00;;;;;;4952413;29;20434;-51
2022/12/24 13:49:33;;;;;;;;;;;22.00;41.10;;;;;;4951841;29;19972;-51
2022/12/24 13:52:10;;;;;;;;;;;21.80;41.40;;;;;;4993866;28;19919;-51
2022/12/24 13:54:37;;;;;;;;;;;21.70;41.60;;;;;;5052502;28;20412;-51
2022/12/24 13:57:02;;;;;;;;;;;21.60;42.00;;;;;;5051836;28;19909;-50
2022/12/24 13:59:28;;;;;;;;;;;21.40;42.00;;;;;;5050949;28;20375;-51
2022/12/24 14:01:53;;;;;;;;;;;21.40;42.40;;;;;;5052825;28;20424;-51
2022/12/24 14:04:23;;;;;;;;;;;21.30;42.40;;;;;;5043713;28;19956;-50
2022/12/24 14:06:49;;;;;;;;;;;21.30;42.50;;;;;;4919341;29;19929;-53
2022/12/24 14:09:15;;;;;;;;;;;21.30;42.60;;;;;;4950521;28;20333;-52
2022/12/24 14:12:07;;;;;;;;;;;21.40;42.30;;;;;;4957924;28;19941;-52
2022/12/24 14:14:34;;;;;;;;;;;21.60;42.00;;;;;;4933522;28;21486;-51
2022/12/24 14:17:00;;;;;;;;;;;21.70;41.80;;;;;;4933099;28;19919;-51
2022/12/24 14:19:31;;;;;;;;;;;21.80;41.50;;;;;;4934917;29;19965;-51
2022/12/24 14:22:01;;;;;;;;;;;21.80;41.40;;;;;;4942962;28;20355;-51
2022/12/24 14:24:30;;;;;;;;;;;21.70;41.60;;;;;;4951302;29;19946;-51
2022/12/24 14:26:56;;;;;;;;;;;21.60;41.70;;;;;;4951764;29;20372;-52
2022/12/24 14:29:25;;;;;;;;;;;21.60;41.90;;;;;;4951209;29;19911;-53